Time;durP1;ratioP1;P1;durP2;ratioP2;P2;SDS_P1;SDS_P2;PMS_P1;PMS_P2;Temp;Humidity;BMP_temperature;BMP_pressure;BME280_temperature;BME280_humidity;BME280_pressure;Samples;Min_cycle;Max_cycle;Signal;HPM_P1;HPM_P2
2022/10/12 00:03:53;;;;;;;4.82;1.45;;;;;;;;;;8263274;28;20096;-63
2022/10/12 00:07:53;;;;;;;4.38;1.52;;;;;;;;;;8265136;28;20029;-63
2022/10/12 00:11:53;;;;;;;3.45;1.58;;;;;;;;;;8265016;28;20068;-63
2022/10/12 00:15:53;;;;;;;4.47;1.80;;;;;;;;;;8264412;28;20844;-63
2022/10/12 00:19:54;;;;;;;3.30;1.90;;;;;;;;;;8263529;28;20550;-63
2022/10/12 00:23:58;;;;;;;6.43;1.63;;;;;;;;;;8264799;28;20152;-63
2022/10/12 00:27:58;;;;;;;4.97;1.60;;;;;;;;;;8263298;28;20541;-63
2022/10/12 00:31:58;;;;;;;5.50;2.00;;;;;;;;;;8261559;28;20668;-63
2022/10/12 00:35:58;;;;;;;3.65;1.52;;;;;;;;;;8262152;28;20018;-63
2022/10/12 00:39:58;;;;;;;3.80;1.45;;;;;;;;;;8260504;28;20025;-63
2022/10/12 00:43:59;;;;;;;3.92;1.50;;;;;;;;;;8265919;28;20013;-63
2022/10/12 00:47:59;;;;;;;4.03;1.40;;;;;;;;;;8262988;28;20042;-63
2022/10/12 00:52:01;;;;;;;7.22;1.73;;;;;;;;;;8265012;28;20325;-63
2022/10/12 00:56:03;;;;;;;8.27;1.60;;;;;;;;;;8261517;28;20444;-63
2022/10/12 01:00:05;;;;;;;5.68;1.70;;;;;;;;;;8264264;28;20112;-63
2022/10/12 01:04:06;;;;;;;8.15;2.13;;;;;;;;;;8263232;28;20046;-63
2022/10/12 01:08:06;;;;;;;4.85;1.73;;;;;;;;;;8265698;28;20029;-63
2022/10/12 01:12:06;;;;;;;7.75;1.88;;;;;;;;;;8261764;28;20538;-63
2022/10/12 01:16:16;;;;;;;6.63;2.22;;;;;;;;;;8262701;28;20094;-63
2022/10/12 01:20:22;;;;;;;8.57;2.33;;;;;;;;;;8260239;28;20030;-63
2022/10/12 01:24:25;;;;;;;2.78;1.40;;;;;;;;;;8260172;28;20026;-63
2022/10/12 01:28:28;;;;;;;8.68;1.98;;;;;;;;;;8263417;28;20038;-63
2022/10/12 01:32:39;;;;;;;3.90;1.80;;;;;;;;;;8261995;28;20262;-63
2022/10/12 01:36:43;;;;;;;7.80;1.70;;;;;;;;;;8260282;28;20028;-64
2022/10/12 01:40:47;;;;;;;3.70;1.53;;;;;;;;;;8259704;28;20552;-63
2022/10/12 01:44:47;;;;;;;5.22;1.42;;;;;;;;;;8262884;28;20460;-63
2022/10/12 01:48:49;;;;;;;10.35;1.80;;;;;;;;;;8262279;28;20072;-63
2022/10/12 01:53:00;;;;;;;7.00;1.83;;;;;;;;;;8262429;28;20499;-63
2022/10/12 01:57:00;;;;;;;6.00;1.77;;;;;;;;;;8262669;28;20657;-63
2022/10/12 02:01:19;;;;;;;6.47;1.60;;;;;;;;;;8261596;28;20073;-63
2022/10/12 02:05:34;;;;;;;4.68;1.55;;;;;;;;;;8263123;28;20057;-63
2022/10/12 02:09:35;;;;;;;9.75;1.85;;;;;;;;;;8261236;28;20177;-63
2022/10/12 02:13:54;;;;;;;3.28;1.50;;;;;;;;;;8263364;28;20090;-63
2022/10/12 02:17:56;;;;;;;5.20;1.50;;;;;;;;;;8262532;28;20038;-63
2022/10/12 02:21:58;;;;;;;3.78;1.60;;;;;;;;;;8261966;28;21182;-63
2022/10/12 02:25:59;;;;;;;5.93;1.60;;;;;;;;;;8266115;28;20030;-63
2022/10/12 02:29:59;;;;;;;4.40;1.80;;;;;;;;;;8268460;28;20029;-63
2022/10/12 02:34:03;;;;;;;4.35;1.52;;;;;;;;;;8269644;28;20068;-63
2022/10/12 02:38:10;;;;;;;4.85;1.90;;;;;;;;;;8268404;28;20026;-63
2022/10/12 02:42:16;;;;;;;5.90;1.60;;;;;;;;;;8267622;28;21114;-63
2022/10/12 02:46:18;;;;;;;4.05;1.90;;;;;;;;;;8268543;28;20038;-63
2022/10/12 02:50:19;;;;;;;6.97;1.50;;;;;;;;;;8267338;28;20498;-63
2022/10/12 02:54:19;;;;;;;6.88;1.42;;;;;;;;;;8267048;28;20025;-63
2022/10/12 02:58:20;;;;;;;3.58;1.55;;;;;;;;;;8270072;28;20101;-63
2022/10/12 03:02:20;;;;;;;5.03;2.07;;;;;;;;;;8268715;28;20490;-63
2022/10/12 03:06:20;;;;;;;5.93;2.00;;;;;;;;;;8268871;28;20725;-63
2022/10/12 03:10:20;;;;;;;4.57;1.70;;;;;;;;;;8265748;28;20549;-63
2022/10/12 03:14:21;;;;;;;5.22;1.63;;;;;;;;;;8268749;28;20735;-63
2022/10/12 03:18:21;;;;;;;6.20;1.70;;;;;;;;;;8266854;28;20041;-63
2022/10/12 03:22:22;;;;;;;10.95;2.00;;;;;;;;;;8267096;28;20022;-63
2022/10/12 03:26:22;;;;;;;6.90;1.83;;;;;;;;;;8265824;28;20033;-63
2022/10/12 03:30:22;;;;;;;4.35;1.55;;;;;;;;;;8267669;28;20040;-63
2022/10/12 03:34:22;;;;;;;4.65;1.77;;;;;;;;;;8267366;28;20501;-63
2022/10/12 03:38:22;;;;;;;4.40;1.63;;;;;;;;;;8265317;28;20116;-63
2022/10/12 03:42:23;;;;;;;5.47;2.08;;;;;;;;;;8264729;28;20287;-63
2022/10/12 03:46:23;;;;;;;5.40;1.80;;;;;;;;;;8264981;28;20037;-63
2022/10/12 03:50:23;;;;;;;5.90;1.90;;;;;;;;;;8265218;28;20832;-63
2022/10/12 03:54:23;;;;;;;7.50;2.00;;;;;;;;;;8266047;28;20501;-63
2022/10/12 03:58:23;;;;;;;8.85;2.00;;;;;;;;;;8268218;28;20127;-63
2022/10/12 04:02:23;;;;;;;11.82;3.20;;;;;;;;;;8263347;28;20037;-63
2022/10/12 04:06:24;;;;;;;6.65;1.85;;;;;;;;;;8264440;28;20553;-63
2022/10/12 04:10:24;;;;;;;7.73;2.97;;;;;;;;;;8263516;28;20022;-63
2022/10/12 04:14:24;;;;;;;6.93;2.33;;;;;;;;;;8267337;28;20328;-63
2022/10/12 04:18:24;;;;;;;9.73;2.60;;;;;;;;;;8262367;28;20034;-63
2022/10/12 04:22:25;;;;;;;7.05;2.63;;;;;;;;;;8263818;28;20030;-63
2022/10/12 04:26:25;;;;;;;4.55;2.10;;;;;;;;;;8265066;28;20045;-63
2022/10/12 04:30:25;;;;;;;5.32;2.47;;;;;;;;;;8266811;28;20045;-65
2022/10/12 04:34:25;;;;;;;6.22;2.20;;;;;;;;;;8263585;28;20105;-63
2022/10/12 04:38:25;;;;;;;7.00;2.38;;;;;;;;;;8263440;28;20413;-63
2022/10/12 04:42:26;;;;;;;8.15;2.50;;;;;;;;;;8264399;28;20052;-63
2022/10/12 04:46:26;;;;;;;9.23;1.95;;;;;;;;;;8263390;28;20145;-63
2022/10/12 04:50:26;;;;;;;7.40;2.60;;;;;;;;;;8264341;28;20026;-63
2022/10/12 04:54:26;;;;;;;6.07;1.92;;;;;;;;;;8263052;28;20105;-63
2022/10/12 04:58:26;;;;;;;5.13;1.80;;;;;;;;;;8266681;28;20030;-63
2022/10/12 05:02:26;;;;;;;7.25;1.58;;;;;;;;;;8264203;28;20038;-63
2022/10/12 05:06:27;;;;;;;4.43;1.63;;;;;;;;;;8265078;28;20111;-63
2022/10/12 05:10:27;;;;;;;6.93;2.20;;;;;;;;;;8263724;28;20029;-63
2022/10/12 05:14:27;;;;;;;16.13;7.63;;;;;;;;;;8263574;28;20386;-63
2022/10/12 05:18:27;;;;;;;8.68;3.50;;;;;;;;;;8261393;28;20033;-63
2022/10/12 05:22:27;;;;;;;5.35;2.30;;;;;;;;;;8262303;28;20041;-63
2022/10/12 05:26:28;;;;;;;5.07;1.98;;;;;;;;;;8264109;28;20033;-63
2022/10/12 05:30:28;;;;;;;2.92;1.65;;;;;;;;;;8260866;28;20038;-63
2022/10/12 05:34:28;;;;;;;7.18;2.35;;;;;;;;;;8260285;28;20304;-63
2022/10/12 05:38:28;;;;;;;6.93;2.15;;;;;;;;;;8262182;28;20024;-63
2022/10/12 05:42:28;;;;;;;5.83;2.00;;;;;;;;;;8263633;28;20806;-63
2022/10/12 05:46:29;;;;;;;4.85;2.28;;;;;;;;;;8262716;28;20809;-63
2022/10/12 05:50:29;;;;;;;13.85;2.10;;;;;;;;;;8259234;28;20665;-63
2022/10/12 05:54:29;;;;;;;4.15;2.17;;;;;;;;;;8261533;28;20044;-63
2022/10/12 05:58:29;;;;;;;9.80;2.70;;;;;;;;;;8260232;28;20014;-63
2022/10/12 06:02:30;;;;;;;6.40;2.10;;;;;;;;;;8262558;28;20675;-63
2022/10/12 06:06:30;;;;;;;4.80;1.80;;;;;;;;;;8265503;28;20558;-63
2022/10/12 06:10:30;;;;;;;4.63;2.20;;;;;;;;;;8266200;28;20506;-63
2022/10/12 06:14:31;;;;;;;4.90;2.00;;;;;;;;;;8264669;28;20839;-63
2022/10/12 06:18:31;;;;;;;9.60;2.35;;;;;;;;;;8264678;28;20034;-63
2022/10/12 06:22:31;;;;;;;3.40;1.65;;;;;;;;;;8267469;28;20025;-63
2022/10/12 06:26:31;;;;;;;5.35;2.00;;;;;;;;;;8268391;28;20152;-63
2022/10/12 06:30:32;;;;;;;4.27;1.67;;;;;;;;;;8266365;28;20526;-64
2022/10/12 06:34:32;;;;;;;6.57;2.20;;;;;;;;;;8264484;28;20647;-63
2022/10/12 06:38:32;;;;;;;7.50;2.10;;;;;;;;;;8265119;28;20149;-64
2022/10/12 06:42:32;;;;;;;4.95;1.95;;;;;;;;;;8263123;28;20542;-64
2022/10/12 06:46:33;;;;;;;6.53;2.30;;;;;;;;;;8264810;28;20068;-64
2022/10/12 06:50:33;;;;;;;5.87;2.00;;;;;;;;;;8264782;28;20036;-64
2022/10/12 06:54:33;;;;;;;4.13;2.07;;;;;;;;;;8264986;28;20407;-64
2022/10/12 06:58:34;;;;;;;12.95;2.35;;;;;;;;;;8262692;28;20546;-64
2022/10/12 07:02:34;;;;;;;10.52;2.40;;;;;;;;;;8264054;28;20045;-64
2022/10/12 07:06:34;;;;;;;8.43;2.08;;;;;;;;;;8262986;28;20040;-63
2022/10/12 07:10:35;;;;;;;5.15;1.77;;;;;;;;;;8263611;28;20061;-64
2022/10/12 07:14:35;;;;;;;7.32;2.00;;;;;;;;;;8263339;28;20589;-64
2022/10/12 07:18:35;;;;;;;6.47;1.88;;;;;;;;;;8263737;28;20061;-64
2022/10/12 07:22:35;;;;;;;5.35;1.95;;;;;;;;;;8262250;28;20528;-64
2022/10/12 07:26:36;;;;;;;3.33;1.75;;;;;;;;;;8265383;28;20915;-65
2022/10/12 07:30:36;;;;;;;7.03;2.05;;;;;;;;;;8261567;28;20061;-62
2022/10/12 07:34:36;;;;;;;9.48;1.88;;;;;;;;;;8264691;28;20021;-63
2022/10/12 07:38:43;;;;;;;4.95;1.90;;;;;;;;;;8262356;28;20533;-63
2022/10/12 07:42:43;;;;;;;6.47;1.90;;;;;;;;;;8260428;28;20519;-63
2022/10/12 07:46:44;;;;;;;6.70;2.10;;;;;;;;;;8263818;28;20044;-63
2022/10/12 07:50:44;;;;;;;9.10;2.30;;;;;;;;;;8271690;28;20759;-63
2022/10/12 07:54:44;;;;;;;5.45;2.15;;;;;;;;;;8273557;28;20053;-63
2022/10/12 07:58:49;;;;;;;7.77;2.03;;;;;;;;;;8273351;28;20021;-63
2022/10/12 08:02:49;;;;;;;6.07;1.90;;;;;;;;;;8273816;28;20276;-63
2022/10/12 08:06:50;;;;;;;6.23;2.07;;;;;;;;;;8273331;28;20036;-63
2022/10/12 08:10:50;;;;;;;4.90;1.60;;;;;;;;;;8269622;28;20022;-62
2022/10/12 08:14:50;;;;;;;8.23;1.92;;;;;;;;;;8272971;28;20048;-63
2022/10/12 08:18:50;;;;;;;5.70;1.90;;;;;;;;;;8272465;28;20037;-63
2022/10/12 08:22:52;;;;;;;7.30;1.90;;;;;;;;;;8269348;28;20021;-63
2022/10/12 08:26:52;;;;;;;4.95;1.67;;;;;;;;;;8272547;28;20128;-63
2022/10/12 08:30:54;;;;;;;5.72;2.30;;;;;;;;;;8269484;28;20804;-63
2022/10/12 08:34:54;;;;;;;9.82;2.22;;;;;;;;;;8270678;28;20148;-63
2022/10/12 08:38:54;;;;;;;7.85;1.92;;;;;;;;;;8270466;28;20625;-62
2022/10/12 08:42:54;;;;;;;4.10;1.73;;;;;;;;;;8272343;28;20044;-63
2022/10/12 08:47:00;;;;;;;7.72;1.70;;;;;;;;;;8268551;28;20037;-62
2022/10/12 08:51:09;;;;;;;5.60;1.95;;;;;;;;;;8270183;28;20726;-62
2022/10/12 08:55:19;;;;;;;7.30;2.00;;;;;;;;;;8268922;28;20521;-62
2022/10/12 08:59:19;;;;;;;5.53;1.90;;;;;;;;;;8271611;28;20439;-65
2022/10/12 09:03:52;;;;;;;7.05;1.83;;;;;;;;;;8270046;28;20072;-65
2022/10/12 09:08:21;;;;;;;6.53;1.60;;;;;;;;;;8279733;28;20033;-65
2022/10/12 09:12:21;;;;;;;7.35;2.05;;;;;;;;;;8274797;28;20072;-65
2022/10/12 09:16:24;;;;;;;9.38;1.90;;;;;;;;;;8272225;28;20034;-65
2022/10/12 09:20:34;;;;;;;6.73;1.77;;;;;;;;;;8269378;28;20022;-65
2022/10/12 09:24:35;;;;;;;6.93;2.08;;;;;;;;;;8267243;28;20030;-65
2022/10/12 09:28:43;;;;;;;8.10;1.90;;;;;;;;;;8267910;28;20038;-65
2022/10/12 09:32:51;;;;;;;3.67;2.00;;;;;;;;;;8269363;28;20038;-65
2022/10/12 09:36:54;;;;;;;8.38;1.75;;;;;;;;;;8268317;28;20779;-65
2022/10/12 09:40:54;;;;;;;5.00;2.20;;;;;;;;;;8267015;28;20105;-65
2022/10/12 09:44:58;;;;;;;7.63;2.80;;;;;;;;;;8268603;28;20062;-65
2022/10/12 09:48:59;;;;;;;10.52;2.70;;;;;;;;;;8259431;28;20037;-65
2022/10/12 09:52:59;;;;;;;6.38;2.53;;;;;;;;;;8254174;28;20025;-65
2022/10/12 09:56:59;;;;;;;7.30;2.30;;;;;;;;;;8255105;28;20105;-62
2022/10/12 10:01:17;;;;;;;8.33;2.63;;;;;;;;;;8252421;28;20045;-62
2022/10/12 10:05:36;;;;;;;9.70;2.97;;;;;;;;;;8252737;28;20452;-62
2022/10/12 10:09:40;;;;;;;9.25;3.08;;;;;;;;;;8250727;28;20029;-62
2022/10/12 10:13:45;;;;;;;10.85;4.40;;;;;;;;;;8243598;28;20214;-63
2022/10/12 10:17:47;;;;;;;9.05;3.50;;;;;;;;;;8251544;28;20050;-63
2022/10/12 10:21:47;;;;;;;9.32;4.13;;;;;;;;;;8251696;28;20505;-63
2022/10/12 10:25:54;;;;;;;10.27;4.95;;;;;;;;;;8255712;28;20407;-63
2022/10/12 10:30:06;;;;;;;15.38;6.32;;;;;;;;;;8255825;28;20076;-63
2022/10/12 10:34:06;;;;;;;12.27;5.45;;;;;;;;;;8252394;28;20539;-62
2022/10/12 10:38:14;;;;;;;16.80;6.05;;;;;;;;;;8255878;28;20013;-62
2022/10/12 10:42:20;;;;;;;10.40;5.60;;;;;;;;;;8254390;28;20548;-63
2022/10/12 10:46:22;;;;;;;11.82;6.82;;;;;;;;;;8254164;28;20045;-62
2022/10/12 10:50:29;;;;;;;17.00;9.13;;;;;;;;;;8257149;28;20075;-62
2022/10/12 10:54:36;;;;;;;17.95;8.93;;;;;;;;;;8257545;28;20433;-63
2022/10/12 10:58:44;;;;;;;18.63;10.20;;;;;;;;;;8260754;28;20029;-62
2022/10/12 11:02:53;;;;;;;23.60;11.88;;;;;;;;;;8257502;28;20085;-62
2022/10/12 11:06:56;;;;;;;17.65;10.13;;;;;;;;;;8259148;28;20166;-62
2022/10/12 11:11:06;;;;;;;18.10;9.90;;;;;;;;;;8251199;28;20319;-63
2022/10/12 11:15:16;;;;;;;18.27;9.48;;;;;;;;;;8252645;28;20152;-63
2022/10/12 11:19:16;;;;;;;14.57;8.25;;;;;;;;;;8258237;28;20106;-63
2022/10/12 11:23:20;;;;;;;16.30;9.23;;;;;;;;;;8259111;28;20553;-63
2022/10/12 11:27:36;;;;;;;19.98;7.38;;;;;;;;;;8258692;28;20068;-64
2022/10/12 11:31:38;;;;;;;15.10;7.65;;;;;;;;;;8256054;28;20116;-63
2022/10/12 11:35:42;;;;;;;16.02;7.35;;;;;;;;;;8257305;28;20491;-63
2022/10/12 11:39:45;;;;;;;16.38;7.80;;;;;;;;;;8255881;28;20317;-63
2022/10/12 11:43:55;;;;;;;13.05;7.53;;;;;;;;;;8255850;28;20033;-63
2022/10/12 11:47:58;;;;;;;13.95;6.68;;;;;;;;;;8257709;28;20236;-63
2022/10/12 11:52:01;;;;;;;15.20;6.63;;;;;;;;;;8257648;28;20124;-63
2022/10/12 11:56:01;;;;;;;14.57;6.20;;;;;;;;;;8256215;28;20277;-63
2022/10/12 12:00:14;;;;;;;10.60;6.28;;;;;;;;;;8254834;28;20022;-63
2022/10/12 12:04:25;;;;;;;15.35;6.32;;;;;;;;;;8256700;28;20049;-63
2022/10/12 12:08:37;;;;;;;11.38;5.93;;;;;;;;;;8257908;28;20030;-62
2022/10/12 12:12:58;;;;;;;12.32;5.65;;;;;;;;;;8254426;28;20038;-63
2022/10/12 12:17:16;;;;;;;11.13;5.75;;;;;;;;;;8257755;28;20707;-63
2022/10/12 12:21:17;;;;;;;14.85;6.78;;;;;;;;;;8256024;28;20087;-63
2022/10/12 12:25:35;;;;;;;12.82;6.90;;;;;;;;;;8254808;28;20058;-63
2022/10/12 12:29:36;;;;;;;12.35;5.95;;;;;;;;;;8256684;28;20048;-62
2022/10/12 12:33:41;;;;;;;11.05;6.10;;;;;;;;;;8253326;28;20037;-62
2022/10/12 12:37:41;;;;;;;13.02;6.72;;;;;;;;;;8255840;28;20026;-63
2022/10/12 12:41:47;;;;;;;13.40;6.70;;;;;;;;;;8254367;28;20383;-63
2022/10/12 12:45:58;;;;;;;14.00;6.63;;;;;;;;;;8249699;28;20089;-63
2022/10/12 12:50:04;;;;;;;12.73;6.38;;;;;;;;;;8255018;28;20402;-63
2022/10/12 12:54:24;;;;;;;14.80;6.50;;;;;;;;;;8255492;28;20060;-63
2022/10/12 12:58:28;;;;;;;14.30;6.90;;;;;;;;;;8256796;28;20133;-63
2022/10/12 13:02:28;;;;;;;18.20;6.38;;;;;;;;;;8255139;28;20044;-63
2022/10/12 13:06:28;;;;;;;18.00;6.93;;;;;;;;;;8253721;28;20021;-62
2022/10/12 13:10:36;;;;;;;22.08;6.78;;;;;;;;;;8254797;28;20041;-62
2022/10/12 13:14:36;;;;;;;14.90;5.88;;;;;;;;;;8253178;28;20022;-63
2022/10/12 13:18:54;;;;;;;14.27;5.82;;;;;;;;;;8254937;28;20038;-63
2022/10/12 13:22:56;;;;;;;15.27;6.03;;;;;;;;;;8256298;28;20525;-63
2022/10/12 13:27:07;;;;;;;12.18;5.95;;;;;;;;;;8252851;28;20701;-63
2022/10/12 13:31:20;;;;;;;15.93;5.95;;;;;;;;;;8243673;28;20411;-63
2022/10/12 13:35:28;;;;;;;9.80;5.55;;;;;;;;;;8250799;28;20561;-62
2022/10/12 13:39:29;;;;;;;12.73;5.53;;;;;;;;;;8252310;28;20419;-62
2022/10/12 13:43:47;;;;;;;14.40;4.90;;;;;;;;;;8255154;28;20040;-62
2022/10/12 13:47:47;;;;;;;9.63;4.45;;;;;;;;;;8256405;28;20041;-62
2022/10/12 13:51:49;;;;;;;17.85;5.65;;;;;;;;;;8252063;28;20791;-62
2022/10/12 13:55:53;;;;;;;10.48;4.82;;;;;;;;;;8252553;28;20018;-62
2022/10/12 13:59:59;;;;;;;8.38;4.88;;;;;;;;;;8248589;28;20302;-63
2022/10/12 14:04:03;;;;;;;16.40;5.43;;;;;;;;;;8250060;28;20526;-63
2022/10/12 14:08:14;;;;;;;13.80;5.30;;;;;;;;;;8252475;28;20095;-63
2022/10/12 14:12:15;;;;;;;12.05;4.85;;;;;;;;;;8251077;28;20337;-62
2022/10/12 14:16:15;;;;;;;9.50;4.35;;;;;;;;;;8253559;28;20038;-63
2022/10/12 14:20:25;;;;;;;7.73;4.40;;;;;;;;;;8252957;28;20040;-63
2022/10/12 14:24:25;;;;;;;10.40;4.53;;;;;;;;;;8258487;28;20288;-63
2022/10/12 14:28:31;;;;;;;9.95;4.70;;;;;;;;;;8258528;28;20030;-63
2022/10/12 14:32:39;;;;;;;9.88;4.72;;;;;;;;;;8272961;28;20107;-63
2022/10/12 14:36:40;;;;;;;11.82;5.80;;;;;;;;;;8255891;28;20892;-63
2022/10/12 14:40:40;;;;;;;13.23;5.40;;;;;;;;;;8260320;28;20032;-63
2022/10/12 14:44:41;;;;;;;9.10;5.22;;;;;;;;;;8260707;28;20492;-63
2022/10/12 14:48:41;;;;;;;10.32;4.97;;;;;;;;;;8258473;28;20038;-63
2022/10/12 14:52:43;;;;;;;11.00;5.28;;;;;;;;;;8257608;28;20504;-63
2022/10/12 14:56:43;;;;;;;7.70;5.50;;;;;;;;;;8258247;28;20022;-63
2022/10/12 15:00:44;;;;;;;12.48;6.25;;;;;;;;;;8259733;28;20033;-63
2022/10/12 15:04:44;;;;;;;9.73;6.43;;;;;;;;;;8258250;28;20026;-64
2022/10/12 15:08:45;;;;;;;12.00;6.07;;;;;;;;;;8257196;28;20330;-64
2022/10/12 15:12:45;;;;;;;11.20;7.00;;;;;;;;;;8255616;28;20506;-64
2022/10/12 15:16:45;;;;;;;14.87;6.57;;;;;;;;;;8259684;28;20803;-64
2022/10/12 15:20:47;;;;;;;10.40;6.72;;;;;;;;;;8254792;28;20461;-64
2022/10/12 15:24:48;;;;;;;13.80;6.45;;;;;;;;;;8258029;28;20030;-64
2022/10/12 15:28:48;;;;;;;14.40;6.93;;;;;;;;;;8259053;28;20025;-64
2022/10/12 15:32:48;;;;;;;12.93;6.35;;;;;;;;;;8255994;28;20042;-64
2022/10/12 15:36:48;;;;;;;9.30;6.40;;;;;;;;;;8257355;28;20029;-63
2022/10/12 15:40:50;;;;;;;11.30;5.25;;;;;;;;;;8248679;28;20040;-64
2022/10/12 15:44:50;;;;;;;7.97;5.38;;;;;;;;;;8251786;28;20030;-64
2022/10/12 15:48:52;;;;;;;12.52;7.03;;;;;;;;;;8254992;28;20128;-63
2022/10/12 15:52:53;;;;;;;12.05;5.85;;;;;;;;;;8254147;28;20516;-64
2022/10/12 15:56:53;;;;;;;7.07;4.88;;;;;;;;;;8257301;28;20290;-63
2022/10/12 16:00:55;;;;;;;10.02;4.97;;;;;;;;;;8257798;28;20474;-64
2022/10/12 16:04:55;;;;;;;12.10;5.93;;;;;;;;;;8257769;28;20029;-65
2022/10/12 16:08:56;;;;;;;12.27;7.07;;;;;;;;;;8258494;28;20177;-65
2022/10/12 16:12:56;;;;;;;8.60;5.20;;;;;;;;;;8252253;28;20371;-63
2022/10/12 16:16:56;;;;;;;8.00;4.10;;;;;;;;;;8253999;28;20145;-63
2022/10/12 16:20:56;;;;;;;8.25;4.30;;;;;;;;;;8257465;28;20994;-63
2022/10/12 16:24:56;;;;;;;7.80;4.50;;;;;;;;;;8257003;28;20435;-63
2022/10/12 16:28:57;;;;;;;8.93;4.50;;;;;;;;;;8258844;28;20087;-63
2022/10/12 16:32:57;;;;;;;8.25;5.28;;;;;;;;;;8255322;28;20380;-63
2022/10/12 16:36:59;;;;;;;9.93;4.60;;;;;;;;;;8256459;28;20124;-63
2022/10/12 16:40:59;;;;;;;13.65;7.50;;;;;;;;;;8255341;28;20017;-63
2022/10/12 16:44:59;;;;;;;10.70;6.40;;;;;;;;;;8256766;28;20018;-63
2022/10/12 16:48:59;;;;;;;14.27;6.38;;;;;;;;;;8255287;28;20474;-63
2022/10/12 16:52:59;;;;;;;13.10;6.10;;;;;;;;;;8255688;28;20509;-64
2022/10/12 16:57:00;;;;;;;12.35;6.10;;;;;;;;;;8253171;28;20057;-63
2022/10/12 17:01:10;;;;;;;9.30;6.15;;;;;;;;;;8252815;28;20040;-63
2022/10/12 17:05:10;;;;;;;11.05;5.22;;;;;;;;;;8254890;28;20585;-63
2022/10/12 17:09:10;;;;;;;10.98;4.85;;;;;;;;;;8255952;28;20040;-63
2022/10/12 17:13:12;;;;;;;7.65;4.93;;;;;;;;;;8253062;28;20137;-63
2022/10/12 17:17:12;;;;;;;14.45;4.72;;;;;;;;;;8256193;28;20128;-63
2022/10/12 17:21:13;;;;;;;6.38;4.38;;;;;;;;;;8254680;28;20052;-63
2022/10/12 17:25:13;;;;;;;10.27;5.68;;;;;;;;;;8255760;28;20096;-63
2022/10/12 17:29:14;;;;;;;13.13;7.03;;;;;;;;;;8255937;28;20116;-63
2022/10/12 17:33:14;;;;;;;9.57;6.10;;;;;;;;;;8255519;28;20481;-63
2022/10/12 17:37:16;;;;;;;14.93;5.43;;;;;;;;;;8261057;28;20282;-63
2022/10/12 17:41:17;;;;;;;11.15;6.25;;;;;;;;;;8257171;28;20407;-63
2022/10/12 17:45:17;;;;;;;9.50;5.47;;;;;;;;;;8255749;28;20025;-63
2022/10/12 17:49:18;;;;;;;7.90;5.07;;;;;;;;;;8257796;28;20264;-63
2022/10/12 17:53:18;;;;;;;9.85;5.88;;;;;;;;;;8256304;28;20038;-64
2022/10/12 17:57:18;;;;;;;18.57;11.63;;;;;;;;;;8255634;28;20422;-63
2022/10/12 18:01:19;;;;;;;16.70;12.07;;;;;;;;;;8255207;28;20547;-63
2022/10/12 18:05:19;;;;;;;10.95;7.97;;;;;;;;;;8255453;28;20057;-63
2022/10/12 18:09:19;;;;;;;13.80;9.10;;;;;;;;;;8255350;28;20030;-63
2022/10/12 18:13:20;;;;;;;14.40;8.73;;;;;;;;;;8251735;28;20034;-63
2022/10/12 18:17:20;;;;;;;13.15;8.60;;;;;;;;;;8248373;28;20288;-63
2022/10/12 18:21:22;;;;;;;17.98;7.93;;;;;;;;;;8255753;28;20407;-63
2022/10/12 18:25:22;;;;;;;9.48;7.25;;;;;;;;;;8253763;28;20326;-63
2022/10/12 18:29:23;;;;;;;10.38;7.03;;;;;;;;;;8257332;28;20881;-63
2022/10/12 18:33:23;;;;;;;9.23;6.70;;;;;;;;;;8253114;28;20209;-63
2022/10/12 18:37:23;;;;;;;14.53;7.37;;;;;;;;;;8252733;28;20834;-64
2022/10/12 18:41:25;;;;;;;12.17;7.87;;;;;;;;;;8254506;28;20129;-63
2022/10/12 18:45:26;;;;;;;15.25;7.90;;;;;;;;;;8252723;28;20538;-63
2022/10/12 18:49:26;;;;;;;17.98;7.57;;;;;;;;;;8253780;28;20040;-63
2022/10/12 18:53:26;;;;;;;12.57;7.25;;;;;;;;;;8248620;28;20077;-64
2022/10/12 18:57:27;;;;;;;12.23;7.03;;;;;;;;;;8251202;28;20021;-63
2022/10/12 19:01:28;;;;;;;12.73;7.53;;;;;;;;;;8250926;28;20800;-63
2022/10/12 19:05:29;;;;;;;14.60;6.97;;;;;;;;;;8252522;28;20062;-63
2022/10/12 19:09:29;;;;;;;8.85;6.40;;;;;;;;;;8256977;28;20025;-63
2022/10/12 19:13:29;;;;;;;11.53;7.00;;;;;;;;;;8255026;28;20018;-63
2022/10/12 19:17:30;;;;;;;11.18;7.10;;;;;;;;;;8256193;28;20030;-63
2022/10/12 19:21:30;;;;;;;14.75;7.40;;;;;;;;;;8260196;28;20014;-64
2022/10/12 19:25:30;;;;;;;11.60;6.88;;;;;;;;;;8258921;28;20033;-63
2022/10/12 19:29:31;;;;;;;10.68;5.57;;;;;;;;;;8259155;28;20046;-63
2022/10/12 19:33:31;;;;;;;10.98;6.43;;;;;;;;;;8258044;28;20164;-63
2022/10/12 19:37:31;;;;;;;11.80;6.70;;;;;;;;;;8255307;28;20140;-63
2022/10/12 19:41:32;;;;;;;12.20;6.07;;;;;;;;;;8260550;28;20041;-63
2022/10/12 19:45:35;;;;;;;10.25;6.15;;;;;;;;;;8260314;28;20069;-63
2022/10/12 19:49:36;;;;;;;12.32;6.35;;;;;;;;;;8256972;28;20029;-63
2022/10/12 19:53:36;;;;;;;12.35;6.38;;;;;;;;;;8256401;28;20026;-68
2022/10/12 19:57:37;;;;;;;10.05;6.65;;;;;;;;;;8257055;28;21229;-63
2022/10/12 20:01:38;;;;;;;15.85;6.22;;;;;;;;;;8257291;28;20041;-64
2022/10/12 20:05:43;;;;;;;8.35;5.82;;;;;;;;;;8259064;28;20080;-63
2022/10/12 20:09:43;;;;;;;12.15;5.75;;;;;;;;;;8260699;28;20119;-63
2022/10/12 20:13:44;;;;;;;10.98;6.40;;;;;;;;;;8259100;28;20564;-63
2022/10/12 20:17:44;;;;;;;10.55;6.22;;;;;;;;;;8262662;28;20034;-63
2022/10/12 20:21:44;;;;;;;17.67;6.97;;;;;;;;;;8260040;28;20026;-63
2022/10/12 20:25:49;;;;;;;11.68;5.78;;;;;;;;;;8260306;28;20029;-63
2022/10/12 20:29:49;;;;;;;;;;;;;;;;;;8261337;28;20152;-64
2022/10/12 20:33:51;;;;;;;12.90;5.72;;;;;;;;;;8259537;28;20050;-64
2022/10/12 20:37:51;;;;;;;8.07;6.05;;;;;;;;;;8261009;28;20409;-64
2022/10/12 20:41:52;;;;;;;12.60;6.63;;;;;;;;;;8264774;28;20542;-64
2022/10/12 20:45:52;;;;;;;9.93;6.30;;;;;;;;;;8258528;28;20080;-64
2022/10/12 20:49:52;;;;;;;11.68;7.00;;;;;;;;;;8257453;28;20032;-64
2022/10/12 20:53:53;;;;;;;12.55;6.40;;;;;;;;;;8258447;28;20057;-64
2022/10/12 20:57:53;;;;;;;8.30;5.97;;;;;;;;;;8257099;28;20026;-64
2022/10/12 21:01:54;;;;;;;9.52;5.68;;;;;;;;;;8255251;28;20068;-64
2022/10/12 21:05:55;;;;;;;13.20;6.50;;;;;;;;;;8258856;28;20505;-64
2022/10/12 21:09:55;;;;;;;17.80;8.02;;;;;;;;;;8259880;28;20319;-63
2022/10/12 21:13:56;;;;;;;13.13;7.87;;;;;;;;;;8260211;28;20144;-63
2022/10/12 21:17:56;;;;;;;18.53;8.10;;;;;;;;;;8259700;28;20029;-64
2022/10/12 21:21:56;;;;;;;16.33;7.75;;;;;;;;;;8253957;28;20626;-64
2022/10/12 21:25:56;;;;;;;24.23;10.13;;;;;;;;;;8256770;28;20136;-64
2022/10/12 21:29:56;;;;;;;17.55;9.10;;;;;;;;;;8255084;28;20041;-64
2022/10/12 21:34:01;;;;;;;14.82;8.85;;;;;;;;;;8253808;28;20041;-64
2022/10/12 21:38:02;;;;;;;18.65;8.93;;;;;;;;;;8253796;28;20585;-64
2022/10/12 21:42:02;;;;;;;18.10;8.40;;;;;;;;;;8253822;28;20018;-64
2022/10/12 21:46:04;;;;;;;11.63;8.37;;;;;;;;;;8253726;28;20796;-64
2022/10/12 21:50:08;;;;;;;12.82;7.50;;;;;;;;;;8258162;28;20307;-64
2022/10/12 21:54:10;;;;;;;17.42;8.55;;;;;;;;;;8262584;28;20378;-64
2022/10/12 21:58:10;;;;;;;13.52;7.82;;;;;;;;;;8266368;28;20029;-63
2022/10/12 22:02:11;;;;;;;12.98;8.23;;;;;;;;;;8262729;28;20123;-63
2022/10/12 22:06:12;;;;;;;13.82;7.88;;;;;;;;;;8267337;28;20481;-63
2022/10/12 22:10:12;;;;;;;14.82;6.97;;;;;;;;;;8267955;28;20014;-63
2022/10/12 22:14:14;;;;;;;12.80;7.72;;;;;;;;;;8268590;28;20036;-63
2022/10/12 22:18:15;;;;;;;13.82;7.85;;;;;;;;;;8271352;28;20061;-63
2022/10/12 22:22:15;;;;;;;12.67;7.40;;;;;;;;;;8269408;28;20036;-64
2022/10/12 22:26:17;;;;;;;11.35;6.07;;;;;;;;;;8270196;28;20299;-63
2022/10/12 22:30:17;;;;;;;11.07;5.78;;;;;;;;;;8267241;28;20033;-63
2022/10/12 22:34:17;;;;;;;12.07;6.18;;;;;;;;;;8268789;28;20025;-63
2022/10/12 22:38:17;;;;;;;12.55;6.75;;;;;;;;;;8269362;28;20018;-63
2022/10/12 22:42:19;;;;;;;15.52;6.78;;;;;;;;;;8270368;28;20091;-63
2022/10/12 22:46:20;;;;;;;10.10;6.50;;;;;;;;;;8278560;28;20036;-64
2022/10/12 22:50:20;;;;;;;11.15;6.70;;;;;;;;;;8272888;28;20083;-63
2022/10/12 22:54:20;;;;;;;12.27;7.57;;;;;;;;;;8273599;28;20478;-64
2022/10/12 22:58:20;;;;;;;16.00;7.18;;;;;;;;;;8273978;28;20148;-63
2022/10/12 23:02:21;;;;;;;14.15;6.85;;;;;;;;;;8272555;28;20074;-63
2022/10/12 23:06:21;;;;;;;12.40;6.78;;;;;;;;;;8275135;28;20460;-63
2022/10/12 23:10:21;;;;;;;12.77;6.67;;;;;;;;;;8274180;28;20479;-63
2022/10/12 23:14:22;;;;;;;10.10;6.50;;;;;;;;;;8273681;28;20338;-63
2022/10/12 23:18:22;;;;;;;10.27;7.07;;;;;;;;;;8274022;28;20038;-63
2022/10/12 23:22:22;;;;;;;12.93;7.68;;;;;;;;;;8272854;28;20268;-63
2022/10/12 23:26:24;;;;;;;15.23;7.30;;;;;;;;;;8274266;28;20036;-63
2022/10/12 23:30:25;;;;;;;15.63;8.05;;;;;;;;;;8271100;28;20265;-63
2022/10/12 23:34:25;;;;;;;15.77;9.10;;;;;;;;;;8272000;28;20034;-64
2022/10/12 23:38:29;;;;;;;12.85;8.38;;;;;;;;;;8272653;28;20256;-63
2022/10/12 23:42:29;;;;;;;12.95;8.57;;;;;;;;;;8267947;28;20052;-64
2022/10/12 23:46:30;;;;;;;15.07;7.35;;;;;;;;;;8277842;28;20045;-64
2022/10/12 23:50:30;;;;;;;13.40;7.32;;;;;;;;;;8268344;28;20030;-64
2022/10/12 23:54:30;;;;;;;14.50;7.53;;;;;;;;;;8266548;28;20022;-64
2022/10/12 23:58:30;;;;;;;11.30;7.53;;;;;;;;;;8269116;28;20113;-64
